createdAt,value
2023-06-04T00:00:41.981Z,10.49
2023-06-04T00:01:42.030Z,10.43
2023-06-04T00:02:42.136Z,10.41
2023-06-04T00:03:42.179Z,10.41
2023-06-04T00:04:42.135Z,10.41
2023-06-04T00:05:41.103Z,10.38
2023-06-04T00:06:41.128Z,10.35
2023-06-04T00:07:41.196Z,10.35
2023-06-04T00:08:41.203Z,10.35
2023-06-04T00:09:41.210Z,10.35
2023-06-04T00:10:41.224Z,10.35
2023-06-04T00:11:41.260Z,10.3
2023-06-04T00:12:41.257Z,10.27
2023-06-04T00:13:41.288Z,10.25
2023-06-04T00:14:41.297Z,10.22
2023-06-04T00:15:41.313Z,10.19
2023-06-04T00:16:41.394Z,10.19
2023-06-04T00:17:41.380Z,10.18
2023-06-04T00:18:41.359Z,10.18
2023-06-04T00:19:41.364Z,10.18
2023-06-04T00:20:41.396Z,10.16
2023-06-04T00:21:41.413Z,10.08
2023-06-04T00:22:41.394Z,10.04
2023-06-04T00:23:41.454Z,10.02
2023-06-04T00:24:41.412Z,10.04
2023-06-04T00:25:41.442Z,9.987
2023-06-04T00:26:41.501Z,9.987
2023-06-04T00:27:41.504Z,9.968
2023-06-04T00:28:41.508Z,9.987
2023-06-04T00:29:41.532Z,9.963
2023-06-04T00:30:41.566Z,9.944
2023-06-04T00:31:41.587Z,9.926
2023-06-04T00:32:41.619Z,9.847
2023-06-04T00:33:41.608Z,9.847
2023-06-04T00:34:41.647Z,9.81
2023-06-04T00:35:41.651Z,9.786
2023-06-04T00:36:41.699Z,9.786
2023-06-04T00:37:41.677Z,9.786
2023-06-04T00:38:41.707Z,9.786
2023-06-04T00:39:41.726Z,9.804
2023-06-04T00:40:41.716Z,9.804
2023-06-04T00:41:41.735Z,9.78
2023-06-04T00:42:41.745Z,9.767
2023-06-04T00:43:41.763Z,9.725
2023-06-04T00:44:41.775Z,9.725
2023-06-04T00:45:41.815Z,9.744
2023-06-04T00:46:41.782Z,9.701
2023-06-04T00:47:41.837Z,9.701
2023-06-04T00:48:41.803Z,9.72
2023-06-04T00:49:41.862Z,9.72
2023-06-04T00:50:41.856Z,9.677
2023-06-04T00:51:41.877Z,9.59
2023-06-04T00:52:41.904Z,9.585
2023-06-04T00:53:41.925Z,9.585
2023-06-04T00:54:41.964Z,9.585
2023-06-04T00:55:41.987Z,9.585
2023-06-04T00:56:41.988Z,9.585
2023-06-04T00:57:42.009Z,9.529
2023-06-04T00:58:42.035Z,9.529
2023-06-04T00:59:42.063Z,9.505
2023-06-04T01:00:42.112Z,9.487
2023-06-04T01:01:41.265Z,9.487
2023-06-04T01:02:41.157Z,9.487
2023-06-04T01:03:41.151Z,9.487
2023-06-04T01:04:41.140Z,9.487
2023-06-04T01:05:41.157Z,9.463
2023-06-04T01:06:41.167Z,9.426
2023-06-04T01:07:41.183Z,9.37
2023-06-04T01:08:41.178Z,9.37
2023-06-04T01:09:41.185Z,9.37
2023-06-04T01:10:41.197Z,9.347
2023-06-04T01:11:41.223Z,9.347
2023-06-04T01:12:41.256Z,9.347
2023-06-04T01:13:41.265Z,9.323
2023-06-04T01:14:41.287Z,9.267
2023-06-04T01:15:41.309Z,9.267
2023-06-04T01:16:41.356Z,9.267
2023-06-04T01:17:41.398Z,9.23
2023-06-04T01:18:41.381Z,9.23
2023-06-04T01:19:41.405Z,9.23
2023-06-04T01:20:41.422Z,9.23
2023-06-04T01:21:41.433Z,9.151
2023-06-04T01:22:41.473Z,9.151
2023-06-04T01:23:41.498Z,9.127
2023-06-04T01:24:41.482Z,9.127
2023-06-04T01:25:41.502Z,9.127
2023-06-04T01:26:41.510Z,9.127
2023-06-04T01:27:41.548Z,9.127
2023-06-04T01:28:41.570Z,9.103
2023-06-04T01:29:41.554Z,9.066
2023-06-04T01:30:41.571Z,9.048
2023-06-04T01:31:41.615Z,9.029
2023-06-04T01:32:41.657Z,9.048
2023-06-04T01:33:41.587Z,9.029
2023-06-04T01:34:41.617Z,8.992
2023-06-04T01:35:41.643Z,8.987
2023-06-04T01:36:41.679Z,8.987
2023-06-04T01:37:41.704Z,8.987
2023-06-04T01:38:41.728Z,8.968
2023-06-04T01:39:41.746Z,8.894
2023-06-04T01:40:41.761Z,8.852
2023-06-04T01:41:41.784Z,8.87
2023-06-04T01:42:41.805Z,8.87
2023-06-04T01:43:41.859Z,8.847
2023-06-04T01:44:41.856Z,8.847
2023-06-04T01:45:41.885Z,8.865
2023-06-04T01:46:41.927Z,8.786
2023-06-04T01:47:41.949Z,8.786
2023-06-04T01:48:42.033Z,8.786
2023-06-04T01:49:41.972Z,8.786
2023-06-04T01:50:41.994Z,8.762
2023-06-04T01:51:41.997Z,8.786
2023-06-04T01:52:42.012Z,8.707
2023-06-04T01:53:42.016Z,8.73
2023-06-04T01:54:42.037Z,8.73
2023-06-04T01:55:42.033Z,8.73
2023-06-04T01:56:42.043Z,8.73
2023-06-04T01:57:42.041Z,8.675
2023-06-04T01:58:42.081Z,8.651
2023-06-04T01:59:42.091Z,8.651
2023-06-04T02:00:41.109Z,8.651
2023-06-04T02:01:41.174Z,8.59
2023-06-04T02:02:41.209Z,8.59
2023-06-04T02:03:41.220Z,8.511
2023-06-04T02:04:41.216Z,8.474
2023-06-04T02:05:41.242Z,8.474
2023-06-04T02:06:41.241Z,8.474
2023-06-04T02:07:41.272Z,8.492
2023-06-04T02:08:41.286Z,8.474
2023-06-04T02:09:41.313Z,8.413
2023-06-04T02:10:41.335Z,8.413
2023-06-04T02:11:41.336Z,8.413
2023-06-04T02:12:41.384Z,8.431
2023-06-04T02:13:41.355Z,8.431
2023-06-04T02:14:41.373Z,8.431
2023-06-04T02:15:41.393Z,8.352
2023-06-04T02:16:41.446Z,8.352
2023-06-04T02:17:41.477Z,8.352
2023-06-04T02:18:41.416Z,8.352
2023-06-04T02:19:41.421Z,8.352
2023-06-04T02:20:41.442Z,8.352
2023-06-04T02:21:41.496Z,8.352
2023-06-04T02:22:41.506Z,8.352
2023-06-04T02:23:41.573Z,8.352
2023-06-04T02:24:41.546Z,8.352
2023-06-04T02:25:41.566Z,8.352
2023-06-04T02:26:41.617Z,8.296
2023-06-04T02:27:41.596Z,8.315
2023-06-04T02:28:41.611Z,8.236
2023-06-04T02:29:41.634Z,8.236
2023-06-04T02:30:41.655Z,8.236
2023-06-04T02:31:41.702Z,8.236
2023-06-04T02:32:41.736Z,8.156
2023-06-04T02:33:41.689Z,8.156
2023-06-04T02:34:41.715Z,8.156
2023-06-04T02:35:41.720Z,8.156
2023-06-04T02:36:41.730Z,8.132
2023-06-04T02:37:41.745Z,8.095
2023-06-04T02:38:41.747Z,8.095
2023-06-04T02:39:41.765Z,8.071
2023-06-04T02:40:41.759Z,8.071
2023-06-04T02:41:41.797Z,8.016
2023-06-04T02:42:41.827Z,7.96
2023-06-04T02:43:41.846Z,7.96
2023-06-04T02:44:41.860Z,7.96
2023-06-04T02:45:41.893Z,7.937
2023-06-04T02:46:41.907Z,7.955
2023-06-04T02:47:41.970Z,7.955
2023-06-04T02:48:41.945Z,7.955
2023-06-04T02:49:41.975Z,7.955
2023-06-04T02:50:41.988Z,7.955
2023-06-04T02:51:42.009Z,7.955
2023-06-04T02:52:44.016Z,7.955
2023-06-04T02:53:42.038Z,7.955
2023-06-04T02:54:42.064Z,7.955
2023-06-04T02:55:42.071Z,7.937
2023-06-04T02:56:42.082Z,7.937
2023-06-04T02:57:42.083Z,7.918
2023-06-04T02:58:41.086Z,7.9
2023-06-04T02:59:41.107Z,7.918
2023-06-04T03:00:41.107Z,7.881
2023-06-04T03:01:41.127Z,7.881
2023-06-04T03:02:41.150Z,7.881
2023-06-04T03:03:41.165Z,7.857
2023-06-04T03:04:41.174Z,7.881
2023-06-04T03:05:41.185Z,7.881
2023-06-04T03:06:41.219Z,7.802
2023-06-04T03:07:41.232Z,7.802
2023-06-04T03:08:41.306Z,7.802
2023-06-04T03:09:41.276Z,7.802
2023-06-04T03:10:41.298Z,7.802
2023-06-04T03:11:41.323Z,7.764
2023-06-04T03:12:41.343Z,7.746
2023-06-04T03:13:41.365Z,7.764
2023-06-04T03:14:41.374Z,7.764
2023-06-04T03:15:41.450Z,7.764
2023-06-04T03:16:41.408Z,7.746
2023-06-04T03:17:41.484Z,7.709
2023-06-04T03:18:41.441Z,7.709
2023-06-04T03:19:41.454Z,7.733
2023-06-04T03:20:41.465Z,7.751
2023-06-04T03:21:41.466Z,7.751
2023-06-04T03:22:41.498Z,7.751
2023-06-04T03:23:41.586Z,7.751
2023-06-04T03:24:41.482Z,7.751
2023-06-04T03:25:41.497Z,7.727
2023-06-04T03:26:41.528Z,7.69
2023-06-04T03:27:41.555Z,7.696
2023-06-04T03:28:41.574Z,7.696
2023-06-04T03:29:41.607Z,7.696
2023-06-04T03:30:41.622Z,7.696
2023-06-04T03:31:41.672Z,7.696
2023-06-04T03:32:41.685Z,7.72
2023-06-04T03:33:41.689Z,7.72
2023-06-04T03:34:41.725Z,7.72
2023-06-04T03:35:41.735Z,7.72
2023-06-04T03:36:41.750Z,7.744
2023-06-04T03:37:41.764Z,7.744
2023-06-04T03:38:41.817Z,7.744
2023-06-04T03:39:41.811Z,7.767
2023-06-04T03:40:41.829Z,7.767
2023-06-04T03:41:41.870Z,7.767
2023-06-04T03:42:41.863Z,7.767
2023-06-04T03:43:41.885Z,7.767
2023-06-04T03:44:41.904Z,7.791
2023-06-04T03:45:41.919Z,7.791
2023-06-04T03:46:41.939Z,7.815
2023-06-04T03:47:41.978Z,7.894
2023-06-04T03:48:41.919Z,7.96
2023-06-04T03:49:41.925Z,7.99
2023-06-04T03:50:41.980Z,8.014
2023-06-04T03:51:41.981Z,8.037
2023-06-04T03:52:42.014Z,8.061
2023-06-04T03:53:42.028Z,8.085
2023-06-04T03:54:42.046Z,8.085
2023-06-04T03:55:42.083Z,8.109
2023-06-04T03:56:42.084Z,8.127
2023-06-04T03:57:41.105Z,8.127
2023-06-04T03:58:41.112Z,8.151
2023-06-04T03:59:41.130Z,8.151
2023-06-04T04:00:41.191Z,8.188
2023-06-04T04:01:41.220Z,8.23
2023-06-04T04:02:41.276Z,8.23
2023-06-04T04:03:41.348Z,8.23
2023-06-04T04:04:41.217Z,8.23
2023-06-04T04:05:41.224Z,8.273
2023-06-04T04:06:41.253Z,8.273
2023-06-04T04:07:41.252Z,8.31
2023-06-04T04:08:41.252Z,8.31
2023-06-04T04:09:41.280Z,8.328
2023-06-04T04:10:41.275Z,8.407
2023-06-04T04:11:41.293Z,8.407
2023-06-04T04:12:41.364Z,8.426
2023-06-04T04:13:41.352Z,8.431
2023-06-04T04:14:41.357Z,8.487
2023-06-04T04:15:41.382Z,8.487
2023-06-04T04:16:41.470Z,8.505
2023-06-04T04:17:41.450Z,8.529
2023-06-04T04:18:41.477Z,8.529
2023-06-04T04:19:41.482Z,8.627
2023-06-04T04:20:41.505Z,8.627
2023-06-04T04:21:41.524Z,8.688
2023-06-04T04:22:41.554Z,8.688
2023-06-04T04:23:41.633Z,8.767
2023-06-04T04:24:41.595Z,8.748
2023-06-04T04:25:41.602Z,8.748
2023-06-04T04:26:41.630Z,8.791
2023-06-04T04:27:41.653Z,8.828
2023-06-04T04:28:41.657Z,8.852
2023-06-04T04:29:41.672Z,8.852
2023-06-04T04:30:41.721Z,8.87
2023-06-04T04:31:41.810Z,8.907
2023-06-04T04:32:41.718Z,8.931
2023-06-04T04:33:41.745Z,9.024
2023-06-04T04:34:41.709Z,9.024
2023-06-04T04:35:41.704Z,9.024
2023-06-04T04:36:41.729Z,9.048
2023-06-04T04:37:41.755Z,9.085
2023-06-04T04:38:41.791Z,9.108
2023-06-04T04:39:41.811Z,9.108
2023-06-04T04:40:41.829Z,9.114
2023-06-04T04:41:41.847Z,9.17
2023-06-04T04:42:41.873Z,9.207
2023-06-04T04:43:41.901Z,9.23
2023-06-04T04:44:41.906Z,9.273
2023-06-04T04:45:41.921Z,9.328
2023-06-04T04:46:42.001Z,9.315
2023-06-04T04:47:41.984Z,9.315
2023-06-04T04:48:41.965Z,9.375
2023-06-04T04:49:41.980Z,9.412
2023-06-04T04:50:41.997Z,9.455
2023-06-04T04:51:42.011Z,9.529
2023-06-04T04:52:42.048Z,9.571
2023-06-04T04:53:42.030Z,9.59
2023-06-04T04:54:42.027Z,9.651
2023-06-04T04:55:42.025Z,9.675
2023-06-04T04:56:42.053Z,9.693
2023-06-04T04:57:42.090Z,9.754
2023-06-04T04:58:42.082Z,9.791
2023-06-04T04:59:41.159Z,9.828
2023-06-04T05:00:41.149Z,9.907
2023-06-04T05:01:41.205Z,9.931
2023-06-04T05:02:41.182Z,9.987
2023-06-04T05:03:41.268Z,10.05
2023-06-04T05:04:41.279Z,10.11
2023-06-04T05:05:41.239Z,10.11
2023-06-04T05:06:41.289Z,10.19
2023-06-04T05:07:41.290Z,10.22
2023-06-04T05:08:41.307Z,10.29
2023-06-04T05:09:41.312Z,10.33
2023-06-04T05:10:41.352Z,10.38
2023-06-04T05:11:41.379Z,10.49
2023-06-04T05:12:41.381Z,10.53
2023-06-04T05:13:41.409Z,10.61
2023-06-04T05:14:41.390Z,10.66
2023-06-04T05:15:41.385Z,10.68
2023-06-04T05:16:43.485Z,10.7
2023-06-04T05:17:41.434Z,10.76
2023-06-04T05:18:41.443Z,10.84
2023-06-04T05:19:41.450Z,10.84
2023-06-04T05:20:41.485Z,10.9
2023-06-04T05:21:41.511Z,10.98
2023-06-04T05:22:41.538Z,11.06
2023-06-04T05:23:41.585Z,11.08
2023-06-04T05:24:41.571Z,11.14
2023-06-04T05:25:41.597Z,11.22
2023-06-04T05:26:41.597Z,11.22
2023-06-04T05:27:41.617Z,11.28
2023-06-04T05:28:41.638Z,11.34
2023-06-04T05:29:41.658Z,11.36
2023-06-04T05:30:41.700Z,11.42
2023-06-04T05:31:41.775Z,11.5
2023-06-04T05:32:41.954Z,11.5
2023-06-04T05:33:41.732Z,11.58
2023-06-04T05:34:41.738Z,11.64
2023-06-04T05:35:41.753Z,11.66
2023-06-04T05:36:41.778Z,11.72
2023-06-04T05:37:41.765Z,11.73
2023-06-04T05:38:41.778Z,11.8
2023-06-04T05:39:41.792Z,11.86
2023-06-04T05:40:41.791Z,11.92
2023-06-04T05:41:41.827Z,11.92
2023-06-04T05:42:41.837Z,12
2023-06-04T05:43:41.851Z,12.06
2023-06-04T05:44:41.877Z,12.04
2023-06-04T05:45:41.951Z,12.14
2023-06-04T05:46:41.950Z,12.17
2023-06-04T05:47:41.983Z,12.2
2023-06-04T05:48:41.974Z,12.28
2023-06-04T05:49:41.997Z,12.33
2023-06-04T05:50:42.017Z,12.39
2023-06-04T05:51:42.040Z,12.42
2023-06-04T05:52:42.050Z,12.48
2023-06-04T05:53:42.095Z,12.47
2023-06-04T05:54:41.103Z,12.57
2023-06-04T05:55:41.154Z,12.59
2023-06-04T05:56:41.148Z,12.65
2023-06-04T05:57:41.167Z,12.8
2023-06-04T05:58:41.176Z,12.91
2023-06-04T05:59:41.188Z,13.03
2023-06-04T06:00:41.197Z,13.21
2023-06-04T06:01:41.222Z,13.48
2023-06-04T06:02:41.344Z,13.67
2023-06-04T06:03:41.272Z,13.92
2023-06-04T06:04:41.474Z,14.13
2023-06-04T06:05:41.248Z,14.34
2023-06-04T06:06:41.256Z,14.57
2023-06-04T06:07:41.363Z,14.78
2023-06-04T06:08:41.298Z,15.06
2023-06-04T06:09:41.315Z,15.23
2023-06-04T06:10:41.333Z,15.44
2023-06-04T06:11:41.363Z,15.6
2023-06-04T06:12:41.404Z,15.84
2023-06-04T06:13:41.448Z,15.99
2023-06-04T06:14:41.437Z,16.13
2023-06-04T06:15:41.478Z,16.35
2023-06-04T06:16:41.461Z,16.53
2023-06-04T06:17:41.537Z,16.67
2023-06-04T06:18:41.514Z,16.79
2023-06-04T06:19:41.522Z,16.97
2023-06-04T06:20:41.532Z,17.11
2023-06-04T06:21:41.546Z,17.22
2023-06-04T06:22:41.549Z,17.39
2023-06-04T06:23:41.641Z,17.53
2023-06-04T06:24:41.588Z,17.68
2023-06-04T06:25:41.683Z,17.79
2023-06-04T06:26:41.604Z,17.92
2023-06-04T06:27:41.635Z,18.04
2023-06-04T06:28:41.619Z,18.15
2023-06-04T06:29:41.626Z,18.3
2023-06-04T06:30:41.648Z,18.45
2023-06-04T06:31:41.745Z,18.56
2023-06-04T06:32:41.744Z,18.67
2023-06-04T06:33:41.728Z,18.85
2023-06-04T06:34:41.768Z,18.92
2023-06-04T06:35:41.774Z,19.11
2023-06-04T06:36:41.801Z,19.22
2023-06-04T06:37:41.814Z,19.31
2023-06-04T06:38:41.916Z,19.43
2023-06-04T06:39:41.894Z,19.54
2023-06-04T06:40:41.880Z,19.67
2023-06-04T06:41:41.904Z,19.75
2023-06-04T06:42:41.917Z,19.86
2023-06-04T06:43:41.943Z,19.97
2023-06-04T06:44:41.972Z,20.13
2023-06-04T06:45:41.979Z,20.24
2023-06-04T06:46:42.033Z,20.32
2023-06-04T06:47:42.084Z,20.48
2023-06-04T06:48:42.014Z,20.61
2023-06-04T06:49:42.035Z,20.64
2023-06-04T06:50:42.052Z,20.78
2023-06-04T06:51:42.057Z,20.88
2023-06-04T06:52:42.071Z,21.02
2023-06-04T06:53:42.098Z,21.1
2023-06-04T06:54:41.094Z,21.15
2023-06-04T06:55:41.111Z,21.29
2023-06-04T06:56:41.131Z,21.33
2023-06-04T06:57:41.162Z,21.44
2023-06-04T06:58:41.179Z,21.54
2023-06-04T06:59:41.209Z,21.66
2023-06-04T07:00:41.256Z,21.75
2023-06-04T07:01:41.268Z,21.81
2023-06-04T07:02:41.412Z,21.89
2023-06-04T07:03:41.327Z,22.01
2023-06-04T07:04:41.324Z,22.11
2023-06-04T07:05:41.359Z,22.17
2023-06-04T07:06:41.362Z,22.2
2023-06-04T07:07:41.374Z,22.35
2023-06-04T07:08:41.402Z,22.46
2023-06-04T07:09:41.415Z,22.56
2023-06-04T07:10:41.434Z,22.66
2023-06-04T07:11:41.447Z,22.77
2023-06-04T07:12:43.632Z,22.79
2023-06-04T07:13:41.468Z,22.85
2023-06-04T07:14:41.472Z,22.92
2023-06-04T07:15:41.487Z,23
2023-06-04T07:16:41.522Z,23.12
2023-06-04T07:17:41.550Z,23.22
2023-06-04T07:18:41.500Z,23.25
2023-06-04T07:19:41.512Z,23.32
2023-06-04T07:20:41.547Z,23.34
2023-06-04T07:21:41.572Z,23.43
2023-06-04T07:22:41.578Z,23.56
2023-06-04T07:23:41.655Z,23.62
2023-06-04T07:24:41.633Z,23.65
2023-06-04T07:25:41.660Z,23.69
2023-06-04T07:26:41.699Z,23.77
2023-06-04T07:27:41.725Z,23.81
2023-06-04T07:28:41.708Z,23.89
2023-06-04T07:29:41.745Z,23.98
2023-06-04T07:30:41.750Z,24.02
2023-06-04T07:31:41.790Z,24.07
2023-06-04T07:32:41.801Z,24.22
2023-06-04T07:33:41.794Z,24.31
2023-06-04T07:34:41.794Z,24.39
2023-06-04T07:35:41.794Z,24.42
2023-06-04T07:36:41.796Z,24.5
2023-06-04T07:37:41.809Z,24.56
2023-06-04T07:38:41.860Z,24.56
2023-06-04T07:39:41.845Z,24.64
2023-06-04T07:40:41.857Z,24.64
2023-06-04T07:41:41.886Z,24.73
2023-06-04T07:42:41.917Z,24.75
2023-06-04T07:43:41.960Z,24.78
2023-06-04T07:44:41.974Z,24.88
2023-06-04T07:45:41.977Z,24.94
2023-06-04T07:46:42.130Z,25.06
2023-06-04T07:47:42.038Z,25.08
2023-06-04T07:48:42.051Z,25.16
2023-06-04T07:49:50.888Z,25.22
2023-06-04T07:50:42.067Z,25.22
2023-06-04T07:51:42.081Z,25.19
2023-06-04T07:52:41.266Z,25.16
2023-06-04T07:53:41.201Z,25.11
2023-06-04T07:54:41.185Z,25.13
2023-06-04T07:55:41.187Z,25.13
2023-06-04T07:56:41.206Z,25.12
2023-06-04T07:57:41.208Z,25.07
2023-06-04T07:58:41.233Z,25.1
2023-06-04T07:59:41.276Z,25.18
2023-06-04T08:00:41.210Z,25.29
2023-06-04T08:01:41.253Z,25.31
2023-06-04T08:02:41.422Z,25.41
2023-06-04T08:03:41.498Z,25.45
2023-06-04T08:04:41.381Z,25.52
2023-06-04T08:05:41.306Z,25.58
2023-06-04T08:06:41.322Z,25.56
2023-06-04T08:07:41.398Z,25.62
2023-06-04T08:08:41.362Z,25.62
2023-06-04T08:09:41.360Z,25.71
2023-06-04T08:10:41.386Z,25.77
2023-06-04T08:11:41.392Z,25.78
2023-06-04T08:12:41.433Z,25.94
2023-06-04T08:13:41.464Z,25.97
2023-06-04T08:14:41.456Z,26
2023-06-04T08:15:41.435Z,26.03
2023-06-04T08:16:41.668Z,26.12
2023-06-04T08:17:41.518Z,26.12
2023-06-04T08:18:41.479Z,26.22
2023-06-04T08:19:41.461Z,26.22
2023-06-04T08:20:41.500Z,26.27
2023-06-04T08:21:41.506Z,26.25
2023-06-04T08:22:41.544Z,26.22
2023-06-04T08:23:41.578Z,26.24
2023-06-04T08:24:41.573Z,26.24
2023-06-04T08:25:41.603Z,26.21
2023-06-04T08:26:41.620Z,26.31
2023-06-04T08:27:41.634Z,26.36
2023-06-04T08:28:41.663Z,26.5
2023-06-04T08:29:41.776Z,26.53
2023-06-04T08:30:41.706Z,26.57
2023-06-04T08:31:41.806Z,26.67
2023-06-04T08:32:41.774Z,26.7
2023-06-04T08:33:41.792Z,26.72
2023-06-04T08:34:41.784Z,26.82
2023-06-04T08:35:41.814Z,26.9
2023-06-04T08:36:41.817Z,26.9
2023-06-04T08:37:41.862Z,26.93
2023-06-04T08:38:41.870Z,26.93
2023-06-04T08:39:41.863Z,26.93
2023-06-04T08:40:41.881Z,27.06
2023-06-04T08:41:41.875Z,27.09
2023-06-04T08:42:41.891Z,27.15
2023-06-04T08:43:41.882Z,27.19
2023-06-04T08:44:41.905Z,27.14
2023-06-04T08:45:42.161Z,27.1
2023-06-04T08:46:42.011Z,27.08
2023-06-04T08:47:42.052Z,27.07
2023-06-04T08:48:42.004Z,27.06
2023-06-04T08:49:42.028Z,27.19
2023-06-04T08:50:42.046Z,27.17
2023-06-04T08:51:42.071Z,27.12
2023-06-04T08:52:41.125Z,27.07
2023-06-04T08:53:41.164Z,26.99
2023-06-04T08:54:41.139Z,26.99
2023-06-04T08:55:41.164Z,26.88
2023-06-04T08:56:41.188Z,26.75
2023-06-04T08:57:41.209Z,26.66
2023-06-04T08:58:41.248Z,26.59
2023-06-04T08:59:41.242Z,26.45
2023-06-04T09:00:41.253Z,26.28
2023-06-04T09:01:41.351Z,26.16
2023-06-04T09:02:41.326Z,25.93
2023-06-04T09:03:41.332Z,25.78
2023-06-04T09:04:41.318Z,25.65
2023-06-04T09:05:41.326Z,25.5
2023-06-04T09:06:41.369Z,25.45
2023-06-04T09:07:41.349Z,25.31
2023-06-04T09:08:41.350Z,25.16
2023-06-04T09:09:41.388Z,25.14
2023-06-04T09:10:41.372Z,25.02
2023-06-04T09:11:41.397Z,24.95
2023-06-04T09:12:41.413Z,24.88
2023-06-04T09:13:41.443Z,24.84
2023-06-04T09:14:41.488Z,24.75
2023-06-04T09:15:41.515Z,24.67
2023-06-04T09:16:41.491Z,24.73
2023-06-04T09:17:41.533Z,24.66
2023-06-04T09:18:41.549Z,24.66
2023-06-04T09:19:41.559Z,24.6
2023-06-04T09:20:41.563Z,24.62
2023-06-04T09:21:41.581Z,24.55
2023-06-04T09:22:41.620Z,24.48
2023-06-04T09:23:41.646Z,24.39
2023-06-04T09:24:41.620Z,24.37
2023-06-04T09:25:41.639Z,24.36
2023-06-04T09:26:41.641Z,24.39
2023-06-04T09:27:41.697Z,24.38
2023-06-04T09:28:41.667Z,24.4
2023-06-04T09:29:41.673Z,24.35
2023-06-04T09:30:41.715Z,24.31
2023-06-04T09:31:41.849Z,24.26
2023-06-04T09:32:41.765Z,24.31
2023-06-04T09:33:41.764Z,24.29
2023-06-04T09:34:41.791Z,24.37
2023-06-04T09:35:41.824Z,24.33
2023-06-04T09:36:41.844Z,24.33
2023-06-04T09:37:41.864Z,24.31
2023-06-04T09:38:41.868Z,24.29
2023-06-04T09:39:41.893Z,24.3
2023-06-04T09:40:41.941Z,24.32
2023-06-04T09:41:42.019Z,24.33
2023-06-04T09:42:42.024Z,24.28
2023-06-04T09:43:42.062Z,24.38
2023-06-04T09:44:42.093Z,24.39
2023-06-04T09:45:42.064Z,24.39
2023-06-04T09:46:42.096Z,24.38
2023-06-04T09:47:42.149Z,24.44
2023-06-04T09:48:42.089Z,24.44
2023-06-04T09:49:42.116Z,24.49
2023-06-04T09:50:42.112Z,24.49
2023-06-04T09:51:42.045Z,24.5
2023-06-04T09:52:42.101Z,24.52
2023-06-04T09:53:42.129Z,24.6
2023-06-04T09:54:41.099Z,24.57
2023-06-04T09:55:41.129Z,24.66
2023-06-04T09:56:41.186Z,24.64
2023-06-04T09:57:41.216Z,24.62
2023-06-04T09:58:44.161Z,24.7
2023-06-04T09:59:41.221Z,24.7
2023-06-04T10:00:41.257Z,24.67
2023-06-04T10:01:41.337Z,24.67
2023-06-04T10:02:41.324Z,24.71
2023-06-04T10:03:41.429Z,24.76
2023-06-04T10:04:41.320Z,24.75
2023-06-04T10:05:41.339Z,24.82
2023-06-04T10:06:41.337Z,24.86
2023-06-04T10:07:41.360Z,24.89
2023-06-04T10:08:41.385Z,24.87
2023-06-04T10:09:41.383Z,24.89
2023-06-04T10:10:41.416Z,24.98
2023-06-04T10:11:41.426Z,25.01
2023-06-04T10:12:41.411Z,25.03
2023-06-04T10:13:41.423Z,25.02
2023-06-04T10:14:41.460Z,25.03
2023-06-04T10:15:41.435Z,25.03
2023-06-04T10:16:41.493Z,25.03
2023-06-04T10:17:41.533Z,25.01
2023-06-04T10:18:41.492Z,25.07
2023-06-04T10:19:41.556Z,25.1
2023-06-04T10:20:41.542Z,25.14
2023-06-04T10:21:41.584Z,25.23
2023-06-04T10:22:41.582Z,25.27
2023-06-04T10:23:41.662Z,25.29
2023-06-04T10:24:41.651Z,25.29
2023-06-04T10:25:41.676Z,25.29
2023-06-04T10:26:41.692Z,25.32
2023-06-04T10:27:41.701Z,25.36
2023-06-04T10:28:41.723Z,25.39
2023-06-04T10:29:41.746Z,25.41
2023-06-04T10:30:41.766Z,25.39
2023-06-04T10:31:41.797Z,25.39
2023-06-04T10:32:41.850Z,25.47
2023-06-04T10:33:41.812Z,25.51
2023-06-04T10:34:41.826Z,25.56
2023-06-04T10:35:41.827Z,25.58
2023-06-04T10:36:41.829Z,25.58
2023-06-04T10:37:41.858Z,25.6
2023-06-04T10:38:41.848Z,25.63
2023-06-04T10:39:41.860Z,25.63
2023-06-04T10:40:41.898Z,25.61
2023-06-04T10:41:41.917Z,25.59
2023-06-04T10:42:41.935Z,25.66
2023-06-04T10:43:41.961Z,25.64
2023-06-04T10:44:41.983Z,25.71
2023-06-04T10:45:42.034Z,25.69
2023-06-04T10:46:42.276Z,25.7
2023-06-04T10:47:42.332Z,25.7
2023-06-04T10:48:42.079Z,25.73
2023-06-04T10:49:41.097Z,25.71
2023-06-04T10:50:41.115Z,25.76
2023-06-04T10:51:41.125Z,25.76
2023-06-04T10:52:41.185Z,25.82
2023-06-04T10:53:41.173Z,25.88
2023-06-04T10:54:41.195Z,25.88
2023-06-04T10:55:41.198Z,25.86
2023-06-04T10:56:41.212Z,25.95
2023-06-04T10:57:41.232Z,26.02
2023-06-04T10:58:41.235Z,26.15
2023-06-04T10:59:41.256Z,26.13
2023-06-04T11:00:41.249Z,26.13
2023-06-04T11:01:41.284Z,26.15
2023-06-04T11:02:41.265Z,26.15
2023-06-04T11:03:41.326Z,26.24
2023-06-04T11:04:41.322Z,26.24
2023-06-04T11:05:41.332Z,26.29
2023-06-04T11:06:41.397Z,26.4
2023-06-04T11:07:41.399Z,26.38
2023-06-04T11:08:41.400Z,26.47
2023-06-04T11:09:41.416Z,26.45
2023-06-04T11:10:41.452Z,26.45
2023-06-04T11:11:41.458Z,26.48
2023-06-04T11:12:41.485Z,26.52
2023-06-04T11:13:41.531Z,26.52
2023-06-04T11:14:41.522Z,26.56
2023-06-04T11:15:42.464Z,26.63
2023-06-04T11:16:41.570Z,26.67
2023-06-04T11:17:41.582Z,26.67
2023-06-04T11:18:41.621Z,26.65
2023-06-04T11:19:41.608Z,26.68
2023-06-04T11:20:41.612Z,26.71
2023-06-04T11:21:41.620Z,26.79
2023-06-04T11:22:41.625Z,26.83
2023-06-04T11:23:41.645Z,26.85
2023-06-04T11:24:41.636Z,26.91
2023-06-04T11:25:41.665Z,26.91
2023-06-04T11:26:47.940Z,26.97
2023-06-04T11:27:41.675Z,27.07
2023-06-04T11:28:41.712Z,27.16
2023-06-04T11:29:41.728Z,27.31
2023-06-04T11:30:41.769Z,27.33
2023-06-04T11:31:41.829Z,27.41
2023-06-04T11:32:41.839Z,27.45
2023-06-04T11:33:41.807Z,27.45
2023-06-04T11:34:41.832Z,27.55
2023-06-04T11:35:41.865Z,27.68
2023-06-04T11:36:41.898Z,27.57
2023-06-04T11:37:41.925Z,27.48
2023-06-04T11:38:41.900Z,27.57
2023-06-04T11:39:41.913Z,27.57
2023-06-04T11:40:41.926Z,27.57
2023-06-04T11:41:41.948Z,27.66
2023-06-04T11:42:41.968Z,27.65
2023-06-04T11:43:41.980Z,27.73
2023-06-04T11:44:41.993Z,27.79
2023-06-04T11:45:41.997Z,28
2023-06-04T11:46:42.005Z,28.08
2023-06-04T11:47:42.131Z,28.1
2023-06-04T11:48:42.069Z,28.1
2023-06-04T11:49:42.029Z,28.17
2023-06-04T11:50:42.062Z,28.27
2023-06-04T11:51:41.106Z,28.3
2023-06-04T11:52:41.112Z,28.49
2023-06-04T11:53:41.131Z,28.53
2023-06-04T11:54:41.160Z,28.58
2023-06-04T11:55:41.188Z,28.58
2023-06-04T11:56:41.222Z,28.61
2023-06-04T11:57:41.271Z,28.68
2023-06-04T11:58:41.256Z,28.68
2023-06-04T11:59:41.270Z,28.68
2023-06-04T12:00:41.293Z,28.79
2023-06-04T12:01:41.308Z,28.77
2023-06-04T12:02:41.417Z,28.8
2023-06-04T12:03:41.415Z,28.77
2023-06-04T12:04:41.344Z,28.88
2023-06-04T12:05:41.404Z,28.86
2023-06-04T12:06:41.370Z,28.92
2023-06-04T12:07:41.389Z,28.93
2023-06-04T12:08:41.395Z,28.88
2023-06-04T12:09:41.410Z,28.71
2023-06-04T12:10:41.468Z,28.6
2023-06-04T12:11:41.423Z,28.6
2023-06-04T12:12:41.433Z,28.54
2023-06-04T12:13:41.468Z,28.41
2023-06-04T12:14:41.581Z,28.43
2023-06-04T12:15:41.515Z,28.43
2023-06-04T12:16:41.556Z,28.32
2023-06-04T12:17:41.609Z,28.43
2023-06-04T12:18:41.592Z,28.43
2023-06-04T12:19:41.752Z,28.43
2023-06-04T12:20:41.625Z,28.43
2023-06-04T12:21:41.633Z,28.49
2023-06-04T12:22:41.658Z,28.64
2023-06-04T12:23:41.714Z,28.79
2023-06-04T12:24:41.697Z,28.92
2023-06-04T12:25:41.734Z,29.01
2023-06-04T12:26:41.819Z,29.01
2023-06-04T12:27:41.743Z,29.12
2023-06-04T12:28:41.765Z,29.21
2023-06-04T12:29:41.778Z,29.27
2023-06-04T12:30:41.884Z,29.36
2023-06-04T12:31:41.946Z,29.34
2023-06-04T12:32:41.816Z,29.37
2023-06-04T12:33:41.793Z,29.5
2023-06-04T12:34:41.834Z,29.5
2023-06-04T12:35:41.857Z,29.5
2023-06-04T12:36:41.882Z,29.64
2023-06-04T12:37:41.881Z,29.64
2023-06-04T12:38:41.905Z,29.69
2023-06-04T12:39:41.933Z,29.72
2023-06-04T12:40:41.979Z,29.71
2023-06-04T12:41:41.993Z,29.84
2023-06-04T12:42:41.994Z,29.91
2023-06-04T12:43:42.009Z,29.91
2023-06-04T12:44:42.028Z,29.91
2023-06-04T12:45:42.037Z,29.91
2023-06-04T12:46:42.115Z,29.91
2023-06-04T12:47:42.122Z,29.6
2023-06-04T12:48:42.081Z,29.37
2023-06-04T12:49:41.092Z,29.37
2023-06-04T12:50:41.104Z,29.28
2023-06-04T12:51:41.113Z,29
2023-06-04T12:52:41.145Z,28.8
2023-06-04T12:53:41.125Z,28.61
2023-06-04T12:54:41.129Z,28.45
2023-06-04T12:55:41.165Z,28.32